sensor_id;sensor_type;location;lat;lon;timestamp;P1;durP1;ratioP1;P2;durP2;ratioP2
11431;SDS011;5772;50.940;6.782;2023-02-28T00:01:52;26.77;;;25.47;;
11431;SDS011;5772;50.940;6.782;2023-02-28T00:04:17;27.43;;;25.77;;
11431;SDS011;5772;50.940;6.782;2023-02-28T00:06:43;26.23;;;24.73;;
11431;SDS011;5772;50.940;6.782;2023-02-28T00:09:08;25.57;;;24.40;;
11431;SDS011;5772;50.940;6.782;2023-02-28T00:11:33;26.77;;;25.50;;
11431;SDS011;5772;50.940;6.782;2023-02-28T00:14:00;28.20;;;26.60;;
11431;SDS011;5772;50.940;6.782;2023-02-28T00:16:26;25.60;;;24.50;;
11431;SDS011;5772;50.940;6.782;2023-02-28T00:18:51;25.43;;;24.33;;
11431;SDS011;5772;50.940;6.782;2023-02-28T00:21:17;25.60;;;24.43;;
11431;SDS011;5772;50.940;6.782;2023-02-28T00:23:43;26.37;;;24.80;;
11431;SDS011;5772;50.940;6.782;2023-02-28T00:26:08;27.37;;;26.27;;
11431;SDS011;5772;50.940;6.782;2023-02-28T00:28:33;29.10;;;27.53;;
11431;SDS011;5772;50.940;6.782;2023-02-28T00:31:00;26.80;;;25.30;;
11431;SDS011;5772;50.940;6.782;2023-02-28T00:33:26;26.53;;;25.33;;
11431;SDS011;5772;50.940;6.782;2023-02-28T00:35:51;27.50;;;26.20;;
11431;SDS011;5772;50.940;6.782;2023-02-28T00:38:16;26.27;;;25.00;;
11431;SDS011;5772;50.940;6.782;2023-02-28T00:40:42;26.27;;;24.80;;
11431;SDS011;5772;50.940;6.782;2023-02-28T00:43:07;28.93;;;27.53;;
11431;SDS011;5772;50.940;6.782;2023-02-28T00:45:33;29.50;;;28.07;;
11431;SDS011;5772;50.940;6.782;2023-02-28T00:48:00;27.67;;;26.47;;
11431;SDS011;5772;50.940;6.782;2023-02-28T00:50:25;26.17;;;24.97;;
11431;SDS011;5772;50.940;6.782;2023-02-28T00:52:50;26.77;;;25.27;;
11431;SDS011;5772;50.940;6.782;2023-02-28T00:55:16;26.43;;;25.23;;
11431;SDS011;5772;50.940;6.782;2023-02-28T00:57:41;25.90;;;24.67;;
11431;SDS011;5772;50.940;6.782;2023-02-28T01:00:07;26.07;;;24.73;;
11431;SDS011;5772;50.940;6.782;2023-02-28T01:02:34;27.50;;;25.93;;
11431;SDS011;5772;50.940;6.782;2023-02-28T01:05:00;25.33;;;24.23;;
11431;SDS011;5772;50.940;6.782;2023-02-28T01:07:26;26.30;;;25.00;;
11431;SDS011;5772;50.940;6.782;2023-02-28T01:09:51;25.47;;;24.10;;
11431;SDS011;5772;50.940;6.782;2023-02-28T01:12:16;26.03;;;24.83;;
11431;SDS011;5772;50.940;6.782;2023-02-28T01:14:42;29.00;;;27.60;;
11431;SDS011;5772;50.940;6.782;2023-02-28T01:17:07;26.67;;;25.47;;
11431;SDS011;5772;50.940;6.782;2023-02-28T01:19:33;25.87;;;24.67;;
11431;SDS011;5772;50.940;6.782;2023-02-28T01:22:01;26.30;;;25.20;;
11431;SDS011;5772;50.940;6.782;2023-02-28T01:24:27;26.07;;;24.77;;
11431;SDS011;5772;50.940;6.782;2023-02-28T01:26:52;28.13;;;26.90;;
11431;SDS011;5772;50.940;6.782;2023-02-28T01:29:18;27.20;;;25.90;;
11431;SDS011;5772;50.940;6.782;2023-02-28T01:31:43;27.83;;;26.43;;
11431;SDS011;5772;50.940;6.782;2023-02-28T01:34:08;27.13;;;25.87;;
11431;SDS011;5772;50.940;6.782;2023-02-28T01:36:34;28.70;;;27.40;;
11431;SDS011;5772;50.940;6.782;2023-02-28T01:39:00;31.03;;;29.63;;
11431;SDS011;5772;50.940;6.782;2023-02-28T01:41:26;29.20;;;27.90;;
11431;SDS011;5772;50.940;6.782;2023-02-28T01:43:57;29.77;;;28.17;;
11431;SDS011;5772;50.940;6.782;2023-02-28T01:46:24;29.90;;;28.50;;
11431;SDS011;5772;50.940;6.782;2023-02-28T01:48:51;30.43;;;28.83;;
11431;SDS011;5772;50.940;6.782;2023-02-28T01:51:18;28.20;;;26.90;;
11431;SDS011;5772;50.940;6.782;2023-02-28T01:53:46;27.80;;;26.50;;
11431;SDS011;5772;50.940;6.782;2023-02-28T01:56:16;29.60;;;28.30;;
11431;SDS011;5772;50.940;6.782;2023-02-28T01:58:43;30.73;;;29.37;;
11431;SDS011;5772;50.940;6.782;2023-02-28T02:01:09;28.97;;;27.67;;
11431;SDS011;5772;50.940;6.782;2023-02-28T02:03:34;29.20;;;27.93;;
11431;SDS011;5772;50.940;6.782;2023-02-28T02:06:00;31.00;;;29.70;;
11431;SDS011;5772;50.940;6.782;2023-02-28T02:08:28;30.47;;;29.07;;
11431;SDS011;5772;50.940;6.782;2023-02-28T02:10:54;30.03;;;28.53;;
11431;SDS011;5772;50.940;6.782;2023-02-28T02:13:36;28.93;;;27.53;;
11431;SDS011;5772;50.940;6.782;2023-02-28T02:16:14;29.83;;;28.40;;
11431;SDS011;5772;50.940;6.782;2023-02-28T02:18:47;31.07;;;29.57;;
11431;SDS011;5772;50.940;6.782;2023-02-28T02:21:24;30.20;;;28.90;;
11431;SDS011;5772;50.940;6.782;2023-02-28T02:24:07;29.50;;;28.20;;
11431;SDS011;5772;50.940;6.782;2023-02-28T02:26:58;30.70;;;29.37;;
11431;SDS011;5772;50.940;6.782;2023-02-28T02:29:39;30.00;;;28.33;;
11431;SDS011;5772;50.940;6.782;2023-02-28T02:35:14;29.37;;;28.03;;
11431;SDS011;5772;50.940;6.782;2023-02-28T02:37:43;29.00;;;27.53;;
11431;SDS011;5772;50.940;6.782;2023-02-28T02:40:14;28.30;;;27.10;;
11431;SDS011;5772;50.940;6.782;2023-02-28T02:42:43;28.00;;;26.90;;
11431;SDS011;5772;50.940;6.782;2023-02-28T02:45:14;28.27;;;26.97;;
11431;SDS011;5772;50.940;6.782;2023-02-28T02:47:42;29.10;;;27.80;;
11431;SDS011;5772;50.940;6.782;2023-02-28T02:50:11;29.63;;;27.67;;
11431;SDS011;5772;50.940;6.782;2023-02-28T02:52:41;28.50;;;27.20;;
11431;SDS011;5772;50.940;6.782;2023-02-28T02:55:09;31.07;;;29.57;;
11431;SDS011;5772;50.940;6.782;2023-02-28T02:57:37;29.80;;;28.40;;
11431;SDS011;5772;50.940;6.782;2023-02-28T03:00:06;30.57;;;29.17;;
11431;SDS011;5772;50.940;6.782;2023-02-28T03:02:32;29.50;;;28.20;;
11431;SDS011;5772;50.940;6.782;2023-02-28T03:04:59;29.60;;;28.30;;
11431;SDS011;5772;50.940;6.782;2023-02-28T03:07:27;30.10;;;28.60;;
11431;SDS011;5772;50.940;6.782;2023-02-28T03:09:53;31.17;;;29.83;;
11431;SDS011;5772;50.940;6.782;2023-02-28T03:12:20;29.80;;;28.43;;
11431;SDS011;5772;50.940;6.782;2023-02-28T03:14:55;30.23;;;28.93;;
11431;SDS011;5772;50.940;6.782;2023-02-28T03:17:27;31.10;;;29.77;;
11431;SDS011;5772;50.940;6.782;2023-02-28T03:19:59;30.40;;;29.20;;
11431;SDS011;5772;50.940;6.782;2023-02-28T03:22:42;31.87;;;30.23;;
11431;SDS011;5772;50.940;6.782;2023-02-28T03:25:24;30.50;;;29.07;;
11431;SDS011;5772;50.940;6.782;2023-02-28T03:27:55;32.40;;;30.77;;
11431;SDS011;5772;50.940;6.782;2023-02-28T03:30:26;30.70;;;29.27;;
11431;SDS011;5772;50.940;6.782;2023-02-28T03:32:55;31.07;;;29.67;;
11431;SDS011;5772;50.940;6.782;2023-02-28T03:35:23;31.27;;;29.87;;
11431;SDS011;5772;50.940;6.782;2023-02-28T03:37:51;32.17;;;30.57;;
11431;SDS011;5772;50.940;6.782;2023-02-28T03:40:19;31.33;;;29.93;;
11431;SDS011;5772;50.940;6.782;2023-02-28T03:42:47;32.23;;;30.77;;
11431;SDS011;5772;50.940;6.782;2023-02-28T03:45:15;32.17;;;30.67;;
11431;SDS011;5772;50.940;6.782;2023-02-28T03:47:44;30.87;;;29.33;;
11431;SDS011;5772;50.940;6.782;2023-02-28T03:50:12;30.40;;;29.10;;
11431;SDS011;5772;50.940;6.782;2023-02-28T03:52:41;31.53;;;30.13;;
11431;SDS011;5772;50.940;6.782;2023-02-28T03:55:11;29.27;;;28.07;;
11431;SDS011;5772;50.940;6.782;2023-02-28T03:57:39;31.87;;;30.47;;
11431;SDS011;5772;50.940;6.782;2023-02-28T04:00:06;31.27;;;29.87;;
11431;SDS011;5772;50.940;6.782;2023-02-28T04:02:34;31.00;;;29.60;;
11431;SDS011;5772;50.940;6.782;2023-02-28T04:05:00;30.87;;;29.67;;
11431;SDS011;5772;50.940;6.782;2023-02-28T04:07:28;30.00;;;28.70;;
11431;SDS011;5772;50.940;6.782;2023-02-28T04:09:54;30.13;;;28.80;;
11431;SDS011;5772;50.940;6.782;2023-02-28T04:12:21;30.10;;;28.70;;
11431;SDS011;5772;50.940;6.782;2023-02-28T04:14:46;31.10;;;29.70;;
11431;SDS011;5772;50.940;6.782;2023-02-28T04:17:12;30.70;;;29.33;;
11431;SDS011;5772;50.940;6.782;2023-02-28T04:19:37;30.40;;;29.00;;
11431;SDS011;5772;50.940;6.782;2023-02-28T04:22:02;30.90;;;29.30;;
11431;SDS011;5772;50.940;6.782;2023-02-28T04:24:28;29.43;;;28.13;;
11431;SDS011;5772;50.940;6.782;2023-02-28T04:26:54;29.07;;;27.67;;
11431;SDS011;5772;50.940;6.782;2023-02-28T04:29:23;29.70;;;28.30;;
11431;SDS011;5772;50.940;6.782;2023-02-28T04:31:49;30.47;;;28.80;;
11431;SDS011;5772;50.940;6.782;2023-02-28T04:34:15;30.10;;;28.67;;
11431;SDS011;5772;50.940;6.782;2023-02-28T04:36:40;29.93;;;28.63;;
11431;SDS011;5772;50.940;6.782;2023-02-28T04:39:05;31.57;;;30.17;;
11431;SDS011;5772;50.940;6.782;2023-02-28T04:41:31;31.00;;;29.60;;
11431;SDS011;5772;50.940;6.782;2023-02-28T04:43:56;30.07;;;28.83;;
11431;SDS011;5772;50.940;6.782;2023-02-28T04:46:23;31.43;;;29.87;;
11431;SDS011;5772;50.940;6.782;2023-02-28T04:48:49;31.23;;;29.83;;
11431;SDS011;5772;50.940;6.782;2023-02-28T04:51:15;33.43;;;31.73;;
11431;SDS011;5772;50.940;6.782;2023-02-28T04:53:42;31.83;;;30.43;;
11431;SDS011;5772;50.940;6.782;2023-02-28T04:56:08;32.13;;;30.67;;
11431;SDS011;5772;50.940;6.782;2023-02-28T04:58:36;33.63;;;32.13;;
11431;SDS011;5772;50.940;6.782;2023-02-28T05:01:01;33.80;;;32.30;;
11431;SDS011;5772;50.940;6.782;2023-02-28T05:03:29;31.87;;;30.37;;
11431;SDS011;5772;50.940;6.782;2023-02-28T05:05:54;31.67;;;30.33;;
11431;SDS011;5772;50.940;6.782;2023-02-28T05:08:20;33.23;;;31.60;;
11431;SDS011;5772;50.940;6.782;2023-02-28T05:10:45;32.50;;;31.10;;
11431;SDS011;5772;50.940;6.782;2023-02-28T05:13:11;32.37;;;30.67;;
11431;SDS011;5772;50.940;6.782;2023-02-28T05:15:36;31.63;;;30.23;;
11431;SDS011;5772;50.940;6.782;2023-02-28T05:18:02;34.87;;;33.03;;
11431;SDS011;5772;50.940;6.782;2023-02-28T05:20:29;33.53;;;31.93;;
11431;SDS011;5772;50.940;6.782;2023-02-28T05:22:54;35.70;;;33.80;;
11431;SDS011;5772;50.940;6.782;2023-02-28T05:25:27;35.67;;;34.10;;
11431;SDS011;5772;50.940;6.782;2023-02-28T05:27:52;35.37;;;33.53;;
11431;SDS011;5772;50.940;6.782;2023-02-28T05:30:18;35.77;;;33.97;;
11431;SDS011;5772;50.940;6.782;2023-02-28T05:32:43;35.63;;;33.83;;
11431;SDS011;5772;50.940;6.782;2023-02-28T05:35:09;34.50;;;33.00;;
11431;SDS011;5772;50.940;6.782;2023-02-28T05:37:36;37.00;;;34.93;;
11431;SDS011;5772;50.940;6.782;2023-02-28T05:40:02;35.07;;;33.37;;
11431;SDS011;5772;50.940;6.782;2023-02-28T05:42:28;36.57;;;34.87;;
11431;SDS011;5772;50.940;6.782;2023-02-28T05:44:53;34.50;;;32.60;;
11431;SDS011;5772;50.940;6.782;2023-02-28T05:47:18;35.87;;;34.17;;
11431;SDS011;5772;50.940;6.782;2023-02-28T05:49:44;37.17;;;35.47;;
11431;SDS011;5772;50.940;6.782;2023-02-28T05:52:09;36.47;;;34.87;;
11431;SDS011;5772;50.940;6.782;2023-02-28T05:54:36;35.07;;;33.43;;
11431;SDS011;5772;50.940;6.782;2023-02-28T05:57:01;35.13;;;33.53;;
11431;SDS011;5772;50.940;6.782;2023-02-28T05:59:27;36.57;;;34.30;;
11431;SDS011;5772;50.940;6.782;2023-02-28T06:01:52;34.97;;;33.43;;
11431;SDS011;5772;50.940;6.782;2023-02-28T06:04:18;38.50;;;35.80;;
11431;SDS011;5772;50.940;6.782;2023-02-28T06:06:44;36.10;;;34.00;;
11431;SDS011;5772;50.940;6.782;2023-02-28T06:09:10;35.33;;;33.53;;
11431;SDS011;5772;50.940;6.782;2023-02-28T06:11:37;34.60;;;33.00;;
11431;SDS011;5772;50.940;6.782;2023-02-28T06:14:02;34.60;;;33.10;;
11431;SDS011;5772;50.940;6.782;2023-02-28T06:16:28;35.50;;;33.80;;
11431;SDS011;5772;50.940;6.782;2023-02-28T06:18:56;33.80;;;32.30;;
11431;SDS011;5772;50.940;6.782;2023-02-28T06:21:22;33.77;;;32.30;;
11431;SDS011;5772;50.940;6.782;2023-02-28T06:23:48;33.93;;;32.20;;
11431;SDS011;5772;50.940;6.782;2023-02-28T06:26:13;32.83;;;31.23;;
11431;SDS011;5772;50.940;6.782;2023-02-28T06:28:40;33.83;;;32.23;;
11431;SDS011;5772;50.940;6.782;2023-02-28T06:31:06;33.00;;;31.53;;
11431;SDS011;5772;50.940;6.782;2023-02-28T06:33:32;33.83;;;32.03;;
11431;SDS011;5772;50.940;6.782;2023-02-28T06:35:58;32.23;;;30.77;;
11431;SDS011;5772;50.940;6.782;2023-02-28T06:38:23;32.13;;;30.57;;
11431;SDS011;5772;50.940;6.782;2023-02-28T06:40:52;32.20;;;30.80;;
11431;SDS011;5772;50.940;6.782;2023-02-28T06:43:18;32.73;;;31.27;;
11431;SDS011;5772;50.940;6.782;2023-02-28T06:45:45;31.27;;;29.97;;
11431;SDS011;5772;50.940;6.782;2023-02-28T06:48:10;30.97;;;29.57;;
11431;SDS011;5772;50.940;6.782;2023-02-28T06:50:35;31.93;;;30.47;;
11431;SDS011;5772;50.940;6.782;2023-02-28T06:53:01;32.43;;;30.70;;
11431;SDS011;5772;50.940;6.782;2023-02-28T06:55:26;31.33;;;29.90;;
11431;SDS011;5772;50.940;6.782;2023-02-28T06:57:52;31.53;;;30.07;;
11431;SDS011;5772;50.940;6.782;2023-02-28T07:00:17;30.70;;;29.40;;
11431;SDS011;5772;50.940;6.782;2023-02-28T07:02:44;32.53;;;30.93;;
11431;SDS011;5772;50.940;6.782;2023-02-28T07:05:10;28.47;;;27.03;;
11431;SDS011;5772;50.940;6.782;2023-02-28T07:07:36;26.47;;;25.30;;
11431;SDS011;5772;50.940;6.782;2023-02-28T07:10:01;26.03;;;24.67;;
11431;SDS011;5772;50.940;6.782;2023-02-28T07:12:26;25.03;;;23.93;;
11431;SDS011;5772;50.940;6.782;2023-02-28T07:14:52;22.93;;;22.00;;
11431;SDS011;5772;50.940;6.782;2023-02-28T07:17:17;24.30;;;23.13;;
11431;SDS011;5772;50.940;6.782;2023-02-28T07:19:44;24.90;;;23.60;;
11431;SDS011;5772;50.940;6.782;2023-02-28T07:22:09;21.43;;;20.43;;
11431;SDS011;5772;50.940;6.782;2023-02-28T07:24:34;20.90;;;19.90;;
11431;SDS011;5772;50.940;6.782;2023-02-28T07:27:00;22.13;;;21.13;;
11431;SDS011;5772;50.940;6.782;2023-02-28T07:29:25;21.63;;;20.70;;
11431;SDS011;5772;50.940;6.782;2023-02-28T07:31:51;27.57;;;26.33;;
11431;SDS011;5772;50.940;6.782;2023-02-28T07:34:16;19.47;;;18.50;;
11431;SDS011;5772;50.940;6.782;2023-02-28T07:36:43;19.60;;;18.70;;
11431;SDS011;5772;50.940;6.782;2023-02-28T07:39:08;20.57;;;19.57;;
11431;SDS011;5772;50.940;6.782;2023-02-28T07:41:34;21.37;;;20.37;;
11431;SDS011;5772;50.940;6.782;2023-02-28T07:43:59;20.00;;;19.20;;
11431;SDS011;5772;50.940;6.782;2023-02-28T07:46:25;21.60;;;20.40;;
11431;SDS011;5772;50.940;6.782;2023-02-28T07:48:50;20.97;;;20.07;;
11431;SDS011;5772;50.940;6.782;2023-02-28T07:51:15;20.90;;;20.00;;
11431;SDS011;5772;50.940;6.782;2023-02-28T07:53:42;20.80;;;19.83;;
11431;SDS011;5772;50.940;6.782;2023-02-28T07:56:08;20.40;;;19.30;;
11431;SDS011;5772;50.940;6.782;2023-02-28T07:58:33;19.17;;;18.37;;
11431;SDS011;5772;50.940;6.782;2023-02-28T08:01:04;18.33;;;17.53;;
11431;SDS011;5772;50.940;6.782;2023-02-28T08:03:30;18.43;;;17.63;;
11431;SDS011;5772;50.940;6.782;2023-02-28T08:05:55;19.23;;;18.33;;
11431;SDS011;5772;50.940;6.782;2023-02-28T08:08:21;18.77;;;17.90;;
11431;SDS011;5772;50.940;6.782;2023-02-28T08:10:47;18.53;;;17.73;;
11431;SDS011;5772;50.940;6.782;2023-02-28T08:13:13;18.57;;;17.67;;
11431;SDS011;5772;50.940;6.782;2023-02-28T08:15:40;17.03;;;16.33;;
11431;SDS011;5772;50.940;6.782;2023-02-28T08:18:05;17.60;;;16.80;;
11431;SDS011;5772;50.940;6.782;2023-02-28T08:20:31;16.97;;;15.97;;
11431;SDS011;5772;50.940;6.782;2023-02-28T08:22:56;18.20;;;17.40;;
11431;SDS011;5772;50.940;6.782;2023-02-28T08:25:21;17.03;;;16.23;;
11431;SDS011;5772;50.940;6.782;2023-02-28T08:27:48;17.00;;;16.30;;
11431;SDS011;5772;50.940;6.782;2023-02-28T08:30:15;17.87;;;17.07;;
11431;SDS011;5772;50.940;6.782;2023-02-28T08:32:41;18.93;;;18.03;;
11431;SDS011;5772;50.940;6.782;2023-02-28T08:35:06;18.90;;;18.07;;
11431;SDS011;5772;50.940;6.782;2023-02-28T08:37:32;19.17;;;18.17;;
11431;SDS011;5772;50.940;6.782;2023-02-28T08:39:58;17.27;;;16.47;;
11431;SDS011;5772;50.940;6.782;2023-02-28T08:42:23;17.53;;;16.80;;
11431;SDS011;5772;50.940;6.782;2023-02-28T08:44:50;17.40;;;16.37;;
11431;SDS011;5772;50.940;6.782;2023-02-28T08:47:15;17.53;;;16.50;;
11431;SDS011;5772;50.940;6.782;2023-02-28T08:49:41;17.13;;;16.33;;
11431;SDS011;5772;50.940;6.782;2023-02-28T08:52:06;17.03;;;16.33;;
11431;SDS011;5772;50.940;6.782;2023-02-28T08:54:32;17.20;;;16.50;;
11431;SDS011;5772;50.940;6.782;2023-02-28T08:56:57;16.40;;;15.70;;
11431;SDS011;5772;50.940;6.782;2023-02-28T08:59:23;16.30;;;15.30;;
11431;SDS011;5772;50.940;6.782;2023-02-28T09:01:49;17.50;;;16.73;;
11431;SDS011;5772;50.940;6.782;2023-02-28T09:04:15;17.87;;;17.17;;
11431;SDS011;5772;50.940;6.782;2023-02-28T09:06:40;17.37;;;16.67;;
11431;SDS011;5772;50.940;6.782;2023-02-28T09:09:05;17.13;;;16.43;;
11431;SDS011;5772;50.940;6.782;2023-02-28T09:11:31;16.67;;;15.97;;
11431;SDS011;5772;50.940;6.782;2023-02-28T09:13:57;17.10;;;16.40;;
11431;SDS011;5772;50.940;6.782;2023-02-28T09:16:22;18.97;;;18.17;;
11431;SDS011;5772;50.940;6.782;2023-02-28T09:18:49;17.20;;;16.50;;
11431;SDS011;5772;50.940;6.782;2023-02-28T09:21:15;17.17;;;16.47;;
11431;SDS011;5772;50.940;6.782;2023-02-28T09:23:42;17.43;;;16.73;;
11431;SDS011;5772;50.940;6.782;2023-02-28T09:26:11;16.17;;;15.53;;
11431;SDS011;5772;50.940;6.782;2023-02-28T09:28:38;16.10;;;15.50;;
11431;SDS011;5772;50.940;6.782;2023-02-28T09:31:03;16.60;;;15.90;;
11431;SDS011;5772;50.940;6.782;2023-02-28T09:33:29;15.93;;;15.23;;
11431;SDS011;5772;50.940;6.782;2023-02-28T09:35:59;16.77;;;16.07;;
11431;SDS011;5772;50.940;6.782;2023-02-28T09:38:26;18.13;;;17.33;;
11431;SDS011;5772;50.940;6.782;2023-02-28T09:40:53;16.50;;;15.83;;
11431;SDS011;5772;50.940;6.782;2023-02-28T09:43:21;16.90;;;16.20;;
11431;SDS011;5772;50.940;6.782;2023-02-28T09:45:48;18.00;;;17.20;;
11431;SDS011;5772;50.940;6.782;2023-02-28T09:48:17;18.63;;;17.73;;
11431;SDS011;5772;50.940;6.782;2023-02-28T09:50:46;18.77;;;17.87;;
11431;SDS011;5772;50.940;6.782;2023-02-28T09:53:15;18.70;;;17.87;;
11431;SDS011;5772;50.940;6.782;2023-02-28T09:55:45;17.70;;;17.00;;
11431;SDS011;5772;50.940;6.782;2023-02-28T09:58:14;16.53;;;15.83;;
11431;SDS011;5772;50.940;6.782;2023-02-28T10:00:43;18.93;;;18.13;;
11431;SDS011;5772;50.940;6.782;2023-02-28T10:03:14;17.90;;;17.20;;
11431;SDS011;5772;50.940;6.782;2023-02-28T10:05:48;16.47;;;15.57;;
11431;SDS011;5772;50.940;6.782;2023-02-28T10:08:18;17.83;;;17.13;;
11431;SDS011;5772;50.940;6.782;2023-02-28T10:10:45;17.20;;;16.50;;
11431;SDS011;5772;50.940;6.782;2023-02-28T10:13:13;17.87;;;17.17;;
11431;SDS011;5772;50.940;6.782;2023-02-28T10:15:41;17.50;;;16.67;;
11431;SDS011;5772;50.940;6.782;2023-02-28T10:18:09;17.90;;;17.10;;
11431;SDS011;5772;50.940;6.782;2023-02-28T10:20:37;16.40;;;15.80;;
11431;SDS011;5772;50.940;6.782;2023-02-28T10:23:05;17.70;;;16.80;;
11431;SDS011;5772;50.940;6.782;2023-02-28T10:25:37;18.37;;;17.57;;
11431;SDS011;5772;50.940;6.782;2023-02-28T10:28:07;17.63;;;16.93;;
11431;SDS011;5772;50.940;6.782;2023-02-28T10:30:36;18.30;;;17.50;;
11431;SDS011;5772;50.940;6.782;2023-02-28T10:33:03;17.30;;;16.60;;
11431;SDS011;5772;50.940;6.782;2023-02-28T10:35:28;19.70;;;18.90;;
11431;SDS011;5772;50.940;6.782;2023-02-28T10:37:55;17.00;;;16.20;;
11431;SDS011;5772;50.940;6.782;2023-02-28T10:40:31;15.37;;;14.77;;
11431;SDS011;5772;50.940;6.782;2023-02-28T10:43:00;14.90;;;14.30;;
11431;SDS011;5772;50.940;6.782;2023-02-28T10:45:26;15.10;;;14.50;;
11431;SDS011;5772;50.940;6.782;2023-02-28T10:47:54;16.97;;;16.27;;
11431;SDS011;5772;50.940;6.782;2023-02-28T10:50:28;17.90;;;17.03;;
11431;SDS011;5772;50.940;6.782;2023-02-28T10:53:05;17.53;;;16.73;;
11431;SDS011;5772;50.940;6.782;2023-02-28T10:55:33;17.30;;;16.50;;
11431;SDS011;5772;50.940;6.782;2023-02-28T10:58:00;16.90;;;16.20;;
11431;SDS011;5772;50.940;6.782;2023-02-28T11:00:26;16.07;;;15.37;;
11431;SDS011;5772;50.940;6.782;2023-02-28T11:02:57;17.33;;;16.40;;
11431;SDS011;5772;50.940;6.782;2023-02-28T11:05:26;15.93;;;15.23;;
11431;SDS011;5772;50.940;6.782;2023-02-28T11:07:53;15.10;;;14.50;;
11431;SDS011;5772;50.940;6.782;2023-02-28T11:10:19;15.93;;;15.23;;
11431;SDS011;5772;50.940;6.782;2023-02-28T11:12:45;16.23;;;15.53;;
11431;SDS011;5772;50.940;6.782;2023-02-28T11:15:21;16.27;;;15.57;;
11431;SDS011;5772;50.940;6.782;2023-02-28T11:17:52;15.83;;;15.13;;
11431;SDS011;5772;50.940;6.782;2023-02-28T11:20:20;16.07;;;15.47;;
11431;SDS011;5772;50.940;6.782;2023-02-28T11:22:46;16.17;;;15.57;;
11431;SDS011;5772;50.940;6.782;2023-02-28T11:25:16;17.50;;;16.70;;
11431;SDS011;5772;50.940;6.782;2023-02-28T11:27:47;15.90;;;15.27;;
11431;SDS011;5772;50.940;6.782;2023-02-28T11:30:24;16.70;;;16.00;;
11431;SDS011;5772;50.940;6.782;2023-02-28T11:32:51;19.20;;;18.40;;
11431;SDS011;5772;50.940;6.782;2023-02-28T11:35:17;17.60;;;16.80;;
11431;SDS011;5772;50.940;6.782;2023-02-28T11:37:45;19.17;;;18.37;;
11431;SDS011;5772;50.940;6.782;2023-02-28T11:40:12;17.07;;;16.37;;
11431;SDS011;5772;50.940;6.782;2023-02-28T11:42:41;16.40;;;15.57;;
11431;SDS011;5772;50.940;6.782;2023-02-28T11:45:14;16.17;;;15.43;;
11431;SDS011;5772;50.940;6.782;2023-02-28T11:47:48;17.53;;;16.83;;
11431;SDS011;5772;50.940;6.782;2023-02-28T11:50:20;17.40;;;16.60;;
11431;SDS011;5772;50.940;6.782;2023-02-28T11:52:52;17.30;;;16.60;;
11431;SDS011;5772;50.940;6.782;2023-02-28T11:55:19;18.20;;;17.40;;
11431;SDS011;5772;50.940;6.782;2023-02-28T11:57:52;17.98;;;17.17;;
11431;SDS011;5772;50.940;6.782;2023-02-28T12:00:28;17.97;;;17.27;;
11431;SDS011;5772;50.940;6.782;2023-02-28T12:03:02;17.63;;;16.83;;
11431;SDS011;5772;50.940;6.782;2023-02-28T12:05:37;18.60;;;17.80;;
11431;SDS011;5772;50.940;6.782;2023-02-28T12:08:11;17.63;;;16.83;;
11431;SDS011;5772;50.940;6.782;2023-02-28T12:10:51;16.97;;;16.17;;
11431;SDS011;5772;50.940;6.782;2023-02-28T12:13:23;18.23;;;17.53;;
11431;SDS011;5772;50.940;6.782;2023-02-28T12:15:55;16.73;;;15.87;;
11431;SDS011;5772;50.940;6.782;2023-02-28T12:18:42;18.67;;;17.77;;
11431;SDS011;5772;50.940;6.782;2023-02-28T12:21:18;17.40;;;16.60;;
11431;SDS011;5772;50.940;6.782;2023-02-28T12:24:06;16.70;;;16.00;;
11431;SDS011;5772;50.940;6.782;2023-02-28T12:26:40;16.77;;;15.87;;
11431;SDS011;5772;50.940;6.782;2023-02-28T12:29:10;16.67;;;15.90;;
11431;SDS011;5772;50.940;6.782;2023-02-28T12:31:40;17.67;;;16.87;;
11431;SDS011;5772;50.940;6.782;2023-02-28T12:34:12;18.77;;;17.73;;
11431;SDS011;5772;50.940;6.782;2023-02-28T12:36:40;17.67;;;16.87;;
11431;SDS011;5772;50.940;6.782;2023-02-28T12:39:08;15.70;;;15.00;;
11431;SDS011;5772;50.940;6.782;2023-02-28T12:41:37;17.07;;;16.10;;
11431;SDS011;5772;50.940;6.782;2023-02-28T12:44:05;16.63;;;15.83;;
11431;SDS011;5772;50.940;6.782;2023-02-28T12:46:35;16.60;;;15.83;;
11431;SDS011;5772;50.940;6.782;2023-02-28T12:49:04;17.80;;;17.00;;
11431;SDS011;5772;50.940;6.782;2023-02-28T12:51:31;17.67;;;16.87;;
11431;SDS011;5772;50.940;6.782;2023-02-28T12:54:00;19.33;;;18.43;;
11431;SDS011;5772;50.940;6.782;2023-02-28T12:56:34;17.57;;;16.77;;
11431;SDS011;5772;50.940;6.782;2023-02-28T12:59:05;16.50;;;15.80;;
11431;SDS011;5772;50.940;6.782;2023-02-28T13:01:42;17.43;;;16.73;;
11431;SDS011;5772;50.940;6.782;2023-02-28T13:04:26;16.70;;;16.00;;
11431;SDS011;5772;50.940;6.782;2023-02-28T13:07:10;17.13;;;16.40;;
11431;SDS011;5772;50.940;6.782;2023-02-28T13:09:59;19.23;;;18.33;;
11431;SDS011;5772;50.940;6.782;2023-02-28T13:12:26;17.67;;;16.73;;
11431;SDS011;5772;50.940;6.782;2023-02-28T13:14:51;17.30;;;16.60;;
11431;SDS011;5772;50.940;6.782;2023-02-28T13:17:28;18.83;;;17.93;;
11431;SDS011;5772;50.940;6.782;2023-02-28T13:19:57;17.30;;;16.47;;
11431;SDS011;5772;50.940;6.782;2023-02-28T13:22:37;16.97;;;16.27;;
11431;SDS011;5772;50.940;6.782;2023-02-28T13:28:08;17.30;;;16.50;;
11431;SDS011;5772;50.940;6.782;2023-02-28T13:33:27;18.53;;;17.63;;
11431;SDS011;5772;50.940;6.782;2023-02-28T13:36:01;17.63;;;16.83;;
11431;SDS011;5772;50.940;6.782;2023-02-28T13:38:36;18.80;;;17.80;;
11431;SDS011;5772;50.940;6.782;2023-02-28T13:44:07;17.30;;;16.50;;
11431;SDS011;5772;50.940;6.782;2023-02-28T13:46:34;17.30;;;16.57;;
11431;SDS011;5772;50.940;6.782;2023-02-28T13:49:18;16.90;;;16.10;;
11431;SDS011;5772;50.940;6.782;2023-02-28T13:51:44;17.03;;;16.30;;
11431;SDS011;5772;50.940;6.782;2023-02-28T13:54:17;16.67;;;15.87;;
11431;SDS011;5772;50.940;6.782;2023-02-28T13:56:48;16.40;;;15.60;;
11431;SDS011;5772;50.940;6.782;2023-02-28T13:59:20;17.97;;;17.13;;
11431;SDS011;5772;50.940;6.782;2023-02-28T14:01:59;17.30;;;16.50;;
11431;SDS011;5772;50.940;6.782;2023-02-28T14:04:38;18.30;;;17.30;;
11431;SDS011;5772;50.940;6.782;2023-02-28T14:07:16;18.27;;;17.47;;
11431;SDS011;5772;50.940;6.782;2023-02-28T14:09:54;18.17;;;17.30;;
11431;SDS011;5772;50.940;6.782;2023-02-28T14:18:14;16.90;;;16.10;;
11431;SDS011;5772;50.940;6.782;2023-02-28T14:20:41;18.10;;;17.23;;
11431;SDS011;5772;50.940;6.782;2023-02-28T14:23:09;18.20;;;17.13;;
11431;SDS011;5772;50.940;6.782;2023-02-28T14:25:41;17.53;;;16.57;;
11431;SDS011;5772;50.940;6.782;2023-02-28T14:28:12;17.27;;;16.47;;
11431;SDS011;5772;50.940;6.782;2023-02-28T14:30:52;16.87;;;16.07;;
11431;SDS011;5772;50.940;6.782;2023-02-28T14:33:27;17.90;;;17.10;;
11431;SDS011;5772;50.940;6.782;2023-02-28T14:36:04;18.03;;;17.03;;
11431;SDS011;5772;50.940;6.782;2023-02-28T14:38:32;18.37;;;17.47;;
11431;SDS011;5772;50.940;6.782;2023-02-28T14:41:04;19.00;;;18.00;;
11431;SDS011;5772;50.940;6.782;2023-02-28T14:43:36;17.73;;;16.67;;
11431;SDS011;5772;50.940;6.782;2023-02-28T14:46:02;17.20;;;16.40;;
11431;SDS011;5772;50.940;6.782;2023-02-28T14:48:29;17.83;;;17.03;;
11431;SDS011;5772;50.940;6.782;2023-02-28T14:50:55;18.80;;;17.90;;
11431;SDS011;5772;50.940;6.782;2023-02-28T14:53:25;17.33;;;16.60;;
11431;SDS011;5772;50.940;6.782;2023-02-28T14:55:51;18.30;;;17.50;;
11431;SDS011;5772;50.940;6.782;2023-02-28T14:58:22;18.53;;;17.70;;